Search
5years
Porsche
Air Show Slide
Air Show Slide
MAMF Slide
Search

Aerodrome Weather

LMML - Malta International Airport

29 February, 5:45 AM
27 minutes ago
VFR
Flight Category
1007
Air Pressure
°/kts
Wind Speed
9°C
Temperature
8°C
Dew Point
9.7 km
Visibility
LMML 290545Z 00000KT 9999 FEW030 09/08 Q1007 NOSIG

ATIS - 127.00MHz

Runway Winds

kt 0 5 10 20 30 40 60
23

No Tailwind/Headwind

No Crosswind

05

No Tailwind/Headwind

No Crosswind

13

No Tailwind/Headwind

No Crosswind

31

No Tailwind/Headwind

No Crosswind

Civil Twilight Times

Sunrise (GMT)

Night End
Sunrise

Sunset (GMT)

Sunset
Night Start

Density Altitude

Density Alt: -162ft (MSL)
LMML: 297ft (MSL)
-459ft
Temperature: 9°C
QNH: 1007hPa

Aerodrome Weather

LICB - Comiso Airport

29 February, 5:50 AM
22 minutes ago
VFR
Flight Category
1008
Air Pressure
50°/5kts
Wind Speed
5°C
Temperature
5°C
Dew Point
9.7 km
Visibility
LICB 290550Z AUTO 05005KT 9999 NCD 05/05 Q1008

Runway Winds

kt 0 5 10 20 30 40 60
23

5 kt Tailwind

No Crosswind

05

5 kt Headwind

No Crosswind

Civil Twilight Times

Sunrise (GMT)

Night End
Sunrise

Sunset (GMT)

Sunset
Night Start

Density Altitude

Density Alt: -213ft (MSL)
LICB: 756ft (MSL)
-969ft
Temperature: 5°C
QNH: 1008hPa

Aerodrome Weather

LICC - Catania-Fontanarossa Airport

29 February, 5:50 AM
22 minutes ago
VFR
Flight Category
1007
Air Pressure
270°/5kts
Wind Speed
7°C
Temperature
6°C
Dew Point
9.7 km
Visibility
LICC 290550Z 27005KT CAVOK 07/06 Q1007

Runway Winds

kt 0 5 10 20 30 40 60
08

5 kt Tailwind

1 kt Left Crosswind

26

5 kt Headwind

1 kt Right Crosswind

Civil Twilight Times

Sunrise (GMT)

Night End
Sunrise

Sunset (GMT)

Sunset
Night Start

Density Altitude

Density Alt: -660ft (MSL)
LICC: 39ft (MSL)
-699ft
Temperature: 7°C
QNH: 1007hPa

Aerodrome Weather

LICR - Reggio Calabria Airport

29 February, 5:50 AM
22 minutes ago
VFR
Flight Category
1007
Air Pressure
10°/8kts
Wind Speed
12°C
Temperature
10°C
Dew Point
9.7 km
Visibility
LICR 290550Z AUTO 01008KT 9999 FEW230/// 12/10 Q1007

Runway Winds

kt 0 5 10 20 30 40 60
15

6 kt Tailwind

5 kt Left Crosswind

33

6 kt Headwind

5 kt Right Crosswind

11

1 kt Tailwind

8 kt Left Crosswind

29

1 kt Headwind

8 kt Right Crosswind

Civil Twilight Times

Sunrise (GMT)

Night End
Sunrise

Sunset (GMT)

Sunset
Night Start

Density Altitude

Density Alt: -3ft (MSL)
LICR: 96ft (MSL)
-99ft
Temperature: 12°C
QNH: 1007hPa

Flying Malta App V3

Welcome to the Flying Malta App, a web-app dedicated to providing useful information for pilots and aviation enthusiasts both for Malta and it’s neighboring countries.. Whether you’re a local pilot, visiting from abroad, or just interested in learning more about aviation in Malta, Flying Malta App offers a variety of resources and tools to help you navigate the skies safely and efficiently. From the latest weather updates and airspace information to airport details and flight planning tools, we’ve got you covered. So take a look around and discover all that Flying Malta App has to offer.